createdAt,value
2016-05-06T00:00:43.337Z,0
2016-05-06T00:01:43.433Z,0
2016-05-06T00:02:43.422Z,0
2016-05-06T00:03:43.143Z,0
2016-05-06T00:04:43.567Z,0
2016-05-06T00:05:43.554Z,0
2016-05-06T00:06:43.400Z,0
2016-05-06T00:07:43.621Z,0
2016-05-06T00:08:43.688Z,0
2016-05-06T00:09:43.721Z,0
2016-05-06T00:10:45.021Z,0
2016-05-06T00:11:43.757Z,0
2016-05-06T00:12:43.683Z,0
2016-05-06T00:13:43.841Z,0
2016-05-06T00:14:43.907Z,0
2016-05-06T00:15:43.612Z,0
2016-05-06T00:16:44.052Z,0
2016-05-06T00:17:43.867Z,0
2016-05-06T00:18:44.058Z,0
2016-05-06T00:19:43.951Z,0
2016-05-06T00:20:44.040Z,0
2016-05-06T00:21:44.153Z,0
2016-05-06T00:22:44.218Z,0
2016-05-06T00:23:44.236Z,0
2016-05-06T00:24:44.160Z,0
2016-05-06T00:25:44.179Z,0
2016-05-06T00:26:44.401Z,0
2016-05-06T00:27:44.435Z,0
2016-05-06T00:28:44.187Z,0
2016-05-06T00:29:44.206Z,0
2016-05-06T00:30:44.537Z,0
2016-05-06T00:31:44.445Z,0
2016-05-06T00:32:44.448Z,0
2016-05-06T00:33:44.638Z,0
2016-05-06T00:34:44.734Z,0
2016-05-06T00:35:44.738Z,0
2016-05-06T00:36:44.756Z,0
2016-05-06T00:37:44.664Z,0
2016-05-06T00:38:44.901Z,0
2016-05-06T00:39:44.889Z,0
2016-05-06T00:40:44.860Z,0
2016-05-06T00:41:44.675Z,0
2016-05-06T00:42:45.069Z,0
2016-05-06T00:43:44.900Z,0
2016-05-06T00:44:45.058Z,0
2016-05-06T00:45:45.170Z,0
2016-05-06T00:46:45.016Z,0
2016-05-06T00:47:45.191Z,0
2016-05-06T00:48:44.772Z,0
2016-05-06T00:49:45.322Z,0
2016-05-06T00:50:45.324Z,0
2016-05-06T00:51:45.343Z,0
2016-05-06T00:52:45.439Z,0
2016-05-06T00:53:45.286Z,0
2016-05-06T00:54:45.491Z,0
2016-05-06T00:55:46.182Z,0
2016-05-06T00:56:45.419Z,0
2016-05-06T00:57:45.640Z,0
2016-05-06T00:58:45.471Z,0
2016-05-06T00:59:45.551Z,0
2016-05-06T01:00:45.727Z,0
2016-05-06T01:01:45.760Z,0
2016-05-06T01:02:45.795Z,0
2016-05-06T01:03:45.812Z,0
2016-05-06T01:04:45.940Z,0
2016-05-06T01:05:45.896Z,0
2016-05-06T01:06:45.946Z,0
2016-05-06T01:07:46.011Z,0
2016-05-06T01:08:46.029Z,0
2016-05-06T01:09:45.923Z,0
2016-05-06T01:10:46.003Z,0
2016-05-06T01:11:46.194Z,0
2016-05-06T01:12:46.180Z,0
2016-05-06T01:13:46.200Z,0
2016-05-06T01:14:46.280Z,0
2016-05-06T01:15:46.330Z,0
2016-05-06T01:16:46.066Z,0
2016-05-06T01:17:46.241Z,0
2016-05-06T01:18:46.275Z,0
2016-05-06T01:19:46.481Z,0
2016-05-06T01:20:46.499Z,0
2016-05-06T01:21:46.532Z,0
2016-05-06T01:22:46.286Z,0
2016-05-06T01:23:46.601Z,0
2016-05-06T01:24:46.494Z,0
2016-05-06T01:25:46.652Z,0
2016-05-06T01:26:46.500Z,0
2016-05-06T01:27:46.612Z,0
2016-05-06T01:28:46.802Z,0
2016-05-06T01:29:46.851Z,0
2016-05-06T01:30:46.776Z,0
2016-05-06T01:31:46.951Z,0
2016-05-06T01:32:46.953Z,0
2016-05-06T01:33:47.081Z,0
2016-05-06T01:34:47.051Z,0
2016-05-06T01:35:46.930Z,0
2016-05-06T01:36:46.917Z,0
2016-05-06T01:37:47.169Z,0
2016-05-06T01:38:47.203Z,0
2016-05-06T01:39:47.285Z,0
2016-05-06T01:40:47.459Z,0
2016-05-06T01:41:47.320Z,0
2016-05-06T01:42:47.356Z,0
2016-05-06T01:43:47.483Z,0
2016-05-06T01:44:47.470Z,0
2016-05-06T01:45:47.472Z,0
2016-05-06T01:46:47.522Z,0
2016-05-06T01:47:47.572Z,0
2016-05-06T01:48:47.434Z,0
2016-05-06T01:49:47.483Z,0
2016-05-06T01:50:47.688Z,0
2016-05-06T01:51:47.567Z,0
2016-05-06T01:52:47.758Z,0
2016-05-06T01:53:47.791Z,0
2016-05-06T01:54:47.855Z,0
2016-05-06T01:55:48.109Z,0
2016-05-06T01:56:47.908Z,0
2016-05-06T01:57:47.943Z,0
2016-05-06T01:58:47.976Z,0
2016-05-06T01:59:48.057Z,0
2016-05-06T02:00:48.076Z,0
2016-05-06T02:01:48.124Z,0
2016-05-06T02:02:47.987Z,0
2016-05-06T02:03:48.161Z,0
2016-05-06T02:04:48.071Z,0
2016-05-06T02:05:48.276Z,0
2016-05-06T02:06:48.310Z,0
2016-05-06T02:07:48.156Z,0
2016-05-06T02:08:48.378Z,0
2016-05-06T02:09:48.115Z,0
2016-05-06T02:10:48.820Z,0
2016-05-06T02:11:48.464Z,0
2016-05-06T02:12:48.373Z,0
2016-05-06T02:13:48.579Z,0
2016-05-06T02:14:48.597Z,0
2016-05-06T02:15:48.662Z,0
2016-05-06T02:16:48.697Z,0
2016-05-06T02:17:48.715Z,0
2016-05-06T02:18:48.624Z,0
2016-05-06T02:19:48.627Z,0
2016-05-06T02:20:48.692Z,0
2016-05-06T02:21:48.850Z,0
2016-05-06T02:22:48.931Z,0
2016-05-06T02:23:48.969Z,0
2016-05-06T02:24:48.987Z,0
2016-05-06T02:25:49.459Z,0
2016-05-06T02:26:48.946Z,0
2016-05-06T02:27:48.948Z,0
2016-05-06T02:28:49.139Z,0
2016-05-06T02:29:49.031Z,0
2016-05-06T02:30:49.270Z,0
2016-05-06T02:31:49.272Z,0
2016-05-06T02:32:49.274Z,0
2016-05-06T02:33:49.183Z,0
2016-05-06T02:34:49.217Z,0
2016-05-06T02:35:49.423Z,0
2016-05-06T02:36:49.425Z,0
2016-05-06T02:37:49.351Z,0
2016-05-06T02:38:49.572Z,0
2016-05-06T02:39:49.388Z,0
2016-05-06T02:40:49.483Z,0
2016-05-06T02:41:49.657Z,0
2016-05-06T02:42:49.582Z,0
2016-05-06T02:43:49.586Z,0
2016-05-06T02:44:49.791Z,0
2016-05-06T02:45:49.668Z,0
2016-05-06T02:46:49.813Z,0
2016-05-06T02:47:49.862Z,0
2016-05-06T02:48:49.473Z,0
2016-05-06T02:49:49.804Z,0
2016-05-06T02:50:49.996Z,0
2016-05-06T02:51:50.029Z,0
2016-05-06T02:52:50.125Z,0
2016-05-06T02:53:50.097Z,0
2016-05-06T02:54:50.130Z,0
2016-05-06T02:55:51.227Z,0
2016-05-06T02:56:50.276Z,0
2016-05-06T02:57:50.264Z,0
2016-05-06T02:58:50.157Z,0
2016-05-06T02:59:50.348Z,0
2016-05-06T03:00:50.084Z,0
2016-05-06T03:01:50.274Z,0
2016-05-06T03:02:50.137Z,0
2016-05-06T03:03:50.561Z,0
2016-05-06T03:04:50.548Z,0
2016-05-06T03:05:50.113Z,0
2016-05-06T03:06:50.475Z,0
2016-05-06T03:07:50.478Z,0
2016-05-06T03:08:50.683Z,0
2016-05-06T03:09:50.749Z,0
2016-05-06T03:10:51.158Z,0
2016-05-06T03:11:50.802Z,0
2016-05-06T03:12:50.851Z,0
2016-05-06T03:13:50.744Z,0
2016-05-06T03:14:50.934Z,0
2016-05-06T03:15:50.969Z,0
2016-05-06T03:16:51.002Z,0
2016-05-06T03:17:51.115Z,0
2016-05-06T03:18:51.070Z,0
2016-05-06T03:19:51.557Z,0
2016-05-06T03:20:51.013Z,0
2016-05-06T03:21:51.250Z,0
2016-05-06T03:22:50.940Z,0
2016-05-06T03:23:51.271Z,0
2016-05-06T03:24:51.196Z,5
2016-05-06T03:25:51.354Z,5
2016-05-06T03:26:51.373Z,5
2016-05-06T03:27:51.251Z,5
2016-05-06T03:28:51.503Z,5
2016-05-06T03:29:51.490Z,5
2016-05-06T03:30:51.384Z,5
2016-05-06T03:31:51.558Z,10
2016-05-06T03:32:51.451Z,10
2016-05-06T03:33:51.501Z,10
2016-05-06T03:34:51.706Z,10
2016-05-06T03:35:51.725Z,10
2016-05-06T03:36:51.650Z,10
2016-05-06T03:37:51.809Z,15
2016-05-06T03:38:51.889Z,15
2016-05-06T03:39:51.736Z,15
2016-05-06T03:40:52.552Z,15
2016-05-06T03:41:52.125Z,15
2016-05-06T03:42:52.017Z,20
2016-05-06T03:43:52.033Z,20
2016-05-06T03:44:51.900Z,20
2016-05-06T03:45:51.919Z,20
2016-05-06T03:46:52.000Z,25
2016-05-06T03:47:52.159Z,25
2016-05-06T03:48:52.083Z,25
2016-05-06T03:49:52.227Z,25
2016-05-06T03:50:52.354Z,30
2016-05-06T03:51:52.341Z,30
2016-05-06T03:52:52.376Z,30
2016-05-06T03:53:52.253Z,30
2016-05-06T03:54:52.288Z,35
2016-05-06T03:55:52.587Z,35
2016-05-06T03:56:52.512Z,35
2016-05-06T03:57:52.295Z,35
2016-05-06T03:58:52.610Z,40
2016-05-06T03:59:52.676Z,40
2016-05-06T04:00:52.694Z,40
2016-05-06T04:01:52.587Z,40
2016-05-06T04:02:52.730Z,45
2016-05-06T04:03:52.499Z,45
2016-05-06T04:04:52.876Z,45
2016-05-06T04:05:52.722Z,45
2016-05-06T04:06:52.898Z,50
2016-05-06T04:07:52.823Z,50
2016-05-06T04:08:52.997Z,50
2016-05-06T04:09:52.999Z,50
2016-05-06T04:10:53.034Z,55
2016-05-06T04:11:53.113Z,55
2016-05-06T04:12:52.820Z,55
2016-05-06T04:13:53.166Z,55
2016-05-06T04:14:53.200Z,60
2016-05-06T04:15:53.297Z,60
2016-05-06T04:16:53.299Z,60
2016-05-06T04:17:53.177Z,60
2016-05-06T04:18:53.351Z,65
2016-05-06T04:19:53.417Z,65
2016-05-06T04:20:53.326Z,65
2016-05-06T04:21:53.438Z,65
2016-05-06T04:22:53.487Z,70
2016-05-06T04:23:53.599Z,70
2016-05-06T04:24:53.602Z,70
2016-05-06T04:25:53.620Z,70
2016-05-06T04:26:53.529Z,75
2016-05-06T04:27:53.735Z,75
2016-05-06T04:28:53.754Z,75
2016-05-06T04:29:53.787Z,75
2016-05-06T04:30:53.712Z,75
2016-05-06T04:31:53.840Z,80
2016-05-06T04:32:53.874Z,80
2016-05-06T04:33:53.939Z,80
2016-05-06T04:34:53.817Z,80
2016-05-06T04:35:53.992Z,80
2016-05-06T04:36:53.884Z,85
2016-05-06T04:37:53.950Z,85
2016-05-06T04:38:54.170Z,85
2016-05-06T04:39:54.048Z,85
2016-05-06T04:40:54.161Z,85
2016-05-06T04:41:54.101Z,85
2016-05-06T04:42:54.306Z,90
2016-05-06T04:43:54.325Z,90
2016-05-06T04:44:54.344Z,90
2016-05-06T04:45:54.439Z,90
2016-05-06T04:46:54.442Z,90
2016-05-06T04:47:54.195Z,95
2016-05-06T04:48:54.355Z,95
2016-05-06T04:49:54.607Z,95
2016-05-06T04:50:54.422Z,95
2016-05-06T04:51:54.596Z,95
2016-05-06T04:52:54.708Z,95
2016-05-06T04:53:54.586Z,95
2016-05-06T04:54:54.730Z,100
2016-05-06T04:55:54.826Z,100
2016-05-06T04:56:54.876Z,100
2016-05-06T04:57:54.832Z,100
2016-05-06T04:58:54.881Z,100
2016-05-06T04:59:54.931Z,100
2016-05-06T05:00:54.839Z,100
2016-05-06T05:01:54.983Z,105
2016-05-06T05:02:55.032Z,105
2016-05-06T05:03:54.941Z,105
2016-05-06T05:04:55.148Z,105
2016-05-06T05:05:54.993Z,105
2016-05-06T05:06:55.028Z,105
2016-05-06T05:07:55.264Z,105
2016-05-06T05:08:55.331Z,110
2016-05-06T05:09:55.317Z,110
2016-05-06T05:10:57.234Z,110
2016-05-06T05:11:55.501Z,110
2016-05-06T05:12:55.551Z,110
2016-05-06T05:13:55.445Z,110
2016-05-06T05:14:55.558Z,110
2016-05-06T05:15:55.811Z,110
2016-05-06T05:16:55.691Z,110
2016-05-06T05:17:55.898Z,110
2016-05-06T05:18:56.011Z,110
2016-05-06T05:19:55.858Z,110
2016-05-06T05:20:56.061Z,110
2016-05-06T05:21:55.945Z,110
2016-05-06T05:22:56.047Z,110
2016-05-06T05:23:56.196Z,110
2016-05-06T05:24:56.237Z,110
2016-05-06T05:25:57.056Z,110
2016-05-06T05:26:56.187Z,115
2016-05-06T05:27:56.331Z,115
2016-05-06T05:28:56.415Z,115
2016-05-06T05:29:56.341Z,115
2016-05-06T05:30:56.548Z,115
2016-05-06T05:31:56.506Z,115
2016-05-06T05:32:56.540Z,115
2016-05-06T05:33:56.622Z,115
2016-05-06T05:34:56.641Z,115
2016-05-06T05:35:56.691Z,115
2016-05-06T05:36:56.772Z,120
2016-05-06T05:37:56.822Z,120
2016-05-06T05:38:56.794Z,120
2016-05-06T05:39:56.688Z,120
2016-05-06T05:40:57.035Z,120
2016-05-06T05:41:56.788Z,120
2016-05-06T05:42:56.961Z,120
2016-05-06T05:43:56.871Z,120
2016-05-06T05:44:56.889Z,120
2016-05-06T05:45:57.126Z,120
2016-05-06T05:46:57.097Z,120
2016-05-06T05:47:57.194Z,125
2016-05-06T05:48:57.072Z,125
2016-05-06T05:49:57.105Z,125
2016-05-06T05:50:57.124Z,125
2016-05-06T05:51:57.204Z,125
2016-05-06T05:52:57.113Z,125
2016-05-06T05:53:57.398Z,125
2016-05-06T05:54:57.479Z,125
2016-05-06T05:55:57.778Z,125
2016-05-06T05:56:57.218Z,125
2016-05-06T05:57:57.581Z,125
2016-05-06T05:58:57.473Z,125
2016-05-06T05:59:57.476Z,130
2016-05-06T06:00:57.682Z,130
2016-05-06T06:01:57.700Z,130
2016-05-06T06:02:57.781Z,130
2016-05-06T06:03:57.518Z,130
2016-05-06T06:04:57.661Z,130
2016-05-06T06:05:57.883Z,130
2016-05-06T06:06:57.464Z,130
2016-05-06T06:07:57.811Z,130
2016-05-06T06:08:57.828Z,130
2016-05-06T06:09:57.894Z,130
2016-05-06T06:10:59.115Z,130
2016-05-06T06:11:57.930Z,130
2016-05-06T06:12:57.855Z,130
2016-05-06T06:13:58.186Z,135
2016-05-06T06:14:58.252Z,135
2016-05-06T06:15:58.082Z,135
2016-05-06T06:16:58.193Z,135
2016-05-06T06:17:58.385Z,135
2016-05-06T06:18:58.230Z,135
2016-05-06T06:19:58.405Z,135
2016-05-06T06:20:58.486Z,135
2016-05-06T06:21:58.488Z,135
2016-05-06T06:22:58.069Z,135
2016-05-06T06:23:58.478Z,135
2016-05-06T06:24:58.654Z,135
2016-05-06T06:25:58.859Z,135
2016-05-06T06:26:58.721Z,140
2016-05-06T06:27:58.629Z,140
2016-05-06T06:28:58.820Z,140
2016-05-06T06:29:58.353Z,140
2016-05-06T06:30:58.904Z,140
2016-05-06T06:31:58.906Z,140
2016-05-06T06:32:58.658Z,140
2016-05-06T06:33:58.803Z,140
2016-05-06T06:34:58.726Z,140
2016-05-06T06:35:58.932Z,140
2016-05-06T06:36:59.092Z,140
2016-05-06T06:37:59.016Z,140
2016-05-06T06:38:59.253Z,140
2016-05-06T06:39:59.069Z,140
2016-05-06T06:40:59.258Z,145
2016-05-06T06:41:59.152Z,145
2016-05-06T06:42:59.388Z,145
2016-05-06T06:43:59.391Z,145
2016-05-06T06:44:59.425Z,145
2016-05-06T06:45:59.475Z,145
2016-05-06T06:46:59.509Z,150
2016-05-06T06:47:59.386Z,145
2016-05-06T06:48:59.608Z,145
2016-05-06T06:49:59.470Z,145
2016-05-06T06:50:59.691Z,145
2016-05-06T06:51:59.694Z,145
2016-05-06T06:52:59.588Z,145
2016-05-06T06:53:59.668Z,150
2016-05-06T06:54:59.671Z,150
2016-05-06T06:55:59.892Z,150
2016-05-06T06:56:59.942Z,150
2016-05-06T06:57:59.945Z,150
2016-05-06T06:58:59.994Z,155
2016-05-06T06:59:59.873Z,150
2016-05-06T07:00:59.968Z,150
2016-05-06T07:02:00.096Z,150
2016-05-06T07:03:00.162Z,150
2016-05-06T07:04:00.086Z,150
2016-05-06T07:05:00.275Z,150
2016-05-06T07:06:00.263Z,150
2016-05-06T07:07:00.312Z,150
2016-05-06T07:08:00.409Z,155
2016-05-06T07:09:00.114Z,155
2016-05-06T07:10:00.306Z,160
2016-05-06T07:11:01.073Z,155
2016-05-06T07:12:00.575Z,155
2016-05-06T07:13:00.485Z,155
2016-05-06T07:14:00.628Z,155
2016-05-06T07:15:00.677Z,155
2016-05-06T07:16:00.696Z,155
2016-05-06T07:17:00.558Z,155
2016-05-06T07:18:00.811Z,155
2016-05-06T07:19:00.845Z,155
2016-05-06T07:20:00.847Z,155
2016-05-06T07:21:00.725Z,160
2016-05-06T07:22:00.993Z,165
2016-05-06T07:23:01.048Z,165
2016-05-06T07:24:00.707Z,160
2016-05-06T07:25:01.068Z,160
2016-05-06T07:26:00.978Z,160
2016-05-06T07:27:00.684Z,160
2016-05-06T07:28:01.171Z,160
2016-05-06T07:29:01.095Z,160
2016-05-06T07:30:01.317Z,160
2016-05-06T07:31:01.148Z,160
2016-05-06T07:32:01.323Z,160
2016-05-06T07:33:01.435Z,165
2016-05-06T07:34:01.406Z,165
2016-05-06T07:35:01.314Z,165
2016-05-06T07:36:01.348Z,165
2016-05-06T07:37:01.601Z,165
2016-05-06T07:38:01.588Z,165
2016-05-06T07:39:01.653Z,165
2016-05-06T07:40:01.547Z,165
2016-05-06T07:41:01.722Z,165
2016-05-06T07:42:01.771Z,165
2016-05-06T07:43:01.492Z,165
2016-05-06T07:44:01.699Z,165
2016-05-06T07:45:01.888Z,165
2016-05-06T07:46:01.485Z,170
2016-05-06T07:47:01.957Z,170
2016-05-06T07:48:01.709Z,170
2016-05-06T07:49:01.931Z,170
2016-05-06T07:50:02.105Z,170
2016-05-06T07:51:02.154Z,170
2016-05-06T07:52:02.173Z,170
2016-05-06T07:53:02.223Z,170
2016-05-06T07:54:02.365Z,170
2016-05-06T07:55:02.009Z,170
2016-05-06T07:56:02.418Z,170
2016-05-06T07:57:02.390Z,170
2016-05-06T07:58:02.314Z,170
2016-05-06T07:59:02.318Z,175
2016-05-06T08:00:02.335Z,175
2016-05-06T08:01:02.603Z,175
2016-05-06T08:02:02.590Z,175
2016-05-06T08:03:02.640Z,175
2016-05-06T08:04:02.720Z,175
2016-05-06T08:05:02.739Z,175
2016-05-06T08:06:02.773Z,175
2016-05-06T08:07:02.667Z,175
2016-05-06T08:08:02.716Z,175
2016-05-06T08:09:02.906Z,180
2016-05-06T08:10:02.925Z,180
2016-05-06T08:11:03.536Z,180
2016-05-06T08:12:03.555Z,185
2016-05-06T08:13:02.916Z,180
2016-05-06T08:14:03.108Z,180
2016-05-06T08:15:03.016Z,180
2016-05-06T08:16:03.035Z,180
2016-05-06T08:17:03.052Z,180
2016-05-06T08:18:03.118Z,190
2016-05-06T08:19:03.355Z,185
2016-05-06T08:20:03.373Z,185
2016-05-06T08:21:03.376Z,185
2016-05-06T08:22:03.347Z,185
2016-05-06T08:23:03.319Z,185
2016-05-06T08:24:03.493Z,185
2016-05-06T08:25:03.574Z,190
2016-05-06T08:26:03.421Z,190
2016-05-06T08:27:03.642Z,190
2016-05-06T08:28:03.535Z,190
2016-05-06T08:29:03.554Z,190
2016-05-06T08:30:03.822Z,190
2016-05-06T08:31:03.653Z,190
2016-05-06T08:32:03.859Z,190
2016-05-06T08:33:03.737Z,190
2016-05-06T08:34:03.801Z,190
2016-05-06T08:35:03.992Z,190
2016-05-06T08:36:03.870Z,190
2016-05-06T08:37:03.794Z,190
2016-05-06T08:38:04.109Z,195
2016-05-06T08:39:03.846Z,195
2016-05-06T08:40:04.037Z,195
2016-05-06T08:41:04.648Z,195
2016-05-06T08:42:04.120Z,195
2016-05-06T08:43:04.169Z,195
2016-05-06T08:44:04.391Z,195
2016-05-06T08:45:04.300Z,195
2016-05-06T08:46:04.427Z,195
2016-05-06T08:47:04.368Z,200
2016-05-06T08:48:04.402Z,200
2016-05-06T08:49:04.591Z,200
2016-05-06T08:50:04.454Z,200
2016-05-06T08:51:04.691Z,200
2016-05-06T08:52:04.568Z,200
2016-05-06T08:53:04.760Z,200
2016-05-06T08:54:04.621Z,200
2016-05-06T08:55:04.858Z,200
2016-05-06T08:56:04.923Z,200
2016-05-06T08:57:04.941Z,200
2016-05-06T08:58:04.991Z,200
2016-05-06T08:59:05.057Z,200
2016-05-06T09:00:05.043Z,205
2016-05-06T09:01:04.921Z,205
2016-05-06T09:02:05.189Z,205
2016-05-06T09:03:05.224Z,205
2016-05-06T09:04:05.039Z,205
2016-05-06T09:05:05.292Z,205
2016-05-06T09:06:05.325Z,210
2016-05-06T09:07:05.015Z,210
2016-05-06T09:08:05.049Z,215
2016-05-06T09:09:05.130Z,215
2016-05-06T09:10:05.320Z,215
2016-05-06T09:11:05.589Z,215
2016-05-06T09:12:05.404Z,215
2016-05-06T09:13:05.516Z,220
2016-05-06T09:14:05.534Z,220
2016-05-06T09:15:05.552Z,220
2016-05-06T09:16:05.758Z,220
2016-05-06T09:17:05.652Z,220
2016-05-06T09:18:05.811Z,220
2016-05-06T09:19:05.844Z,220
2016-05-06T09:20:05.753Z,220
2016-05-06T09:21:05.818Z,220
2016-05-06T09:22:05.963Z,225
2016-05-06T09:23:06.027Z,225
2016-05-06T09:24:06.092Z,225
2016-05-06T09:25:06.158Z,225
2016-05-06T09:26:06.270Z,225
2016-05-06T09:27:06.054Z,225
2016-05-06T09:28:06.150Z,230
2016-05-06T09:29:06.121Z,235
2016-05-06T09:30:06.359Z,235
2016-05-06T09:31:06.236Z,235
2016-05-06T09:32:06.442Z,235
2016-05-06T09:33:06.304Z,235
2016-05-06T09:34:06.573Z,240
2016-05-06T09:35:06.435Z,240
2016-05-06T09:36:06.484Z,245
2016-05-06T09:37:06.628Z,245
2016-05-06T09:38:06.740Z,250
2016-05-06T09:39:06.617Z,250
2016-05-06T09:40:06.776Z,255
2016-05-06T09:41:07.295Z,260
2016-05-06T09:42:06.922Z,255
2016-05-06T09:43:06.784Z,255
2016-05-06T09:44:06.943Z,255
2016-05-06T09:45:07.196Z,260
2016-05-06T09:46:06.917Z,260
2016-05-06T09:47:07.092Z,260
2016-05-06T09:48:06.798Z,265
2016-05-06T09:49:07.206Z,265
2016-05-06T09:50:07.083Z,270
2016-05-06T09:51:07.072Z,270
2016-05-06T09:52:07.152Z,270
2016-05-06T09:53:07.421Z,275
2016-05-06T09:54:07.408Z,275
2016-05-06T09:55:07.426Z,280
2016-05-06T09:56:08.085Z,280
2016-05-06T09:57:07.244Z,285
2016-05-06T09:58:07.527Z,285
2016-05-06T09:59:07.593Z,290
2016-05-06T10:00:07.657Z,290
2016-05-06T10:01:07.552Z,295
2016-05-06T10:02:07.554Z,300
2016-05-06T10:03:07.806Z,305
2016-05-06T10:04:07.872Z,305
2016-05-06T10:05:07.765Z,310
2016-05-06T10:06:07.751Z,315
2016-05-06T10:07:07.834Z,320
2016-05-06T10:08:07.851Z,335
2016-05-06T10:09:08.042Z,415
2016-05-06T10:10:07.904Z,1200
2016-05-06T10:11:08.172Z,2235
2016-05-06T10:12:08.050Z,2785
2016-05-06T10:13:08.068Z,2855
2016-05-06T10:14:08.306Z,2895
2016-05-06T10:15:08.323Z,2900
2016-05-06T10:16:08.389Z,2885
2016-05-06T10:17:08.438Z,2900
2016-05-06T10:18:08.488Z,2920
2016-05-06T10:19:08.569Z,2905
2016-05-06T10:20:08.430Z,2890
2016-05-06T10:21:08.512Z,2915
2016-05-06T10:22:08.764Z,2950
2016-05-06T10:23:08.642Z,2940
2016-05-06T10:24:08.785Z,2970
2016-05-06T10:25:08.849Z,3030
2016-05-06T10:26:08.931Z,3050
2016-05-06T10:27:09.293Z,3090
2016-05-06T10:28:09.046Z,3100
2016-05-06T10:29:09.143Z,3110
2016-05-06T10:30:09.145Z,3110
2016-05-06T10:31:09.335Z,3150
2016-05-06T10:32:09.291Z,3160
2016-05-06T10:33:09.310Z,3205
2016-05-06T10:34:09.359Z,3230
2016-05-06T10:35:09.393Z,3230
2016-05-06T10:36:09.192Z,3250
2016-05-06T10:37:09.382Z,3250
2016-05-06T10:38:09.463Z,3290
2016-05-06T10:39:09.700Z,3285
2016-05-06T10:40:09.687Z,3295
2016-05-06T10:41:09.581Z,3290
2016-05-06T10:42:09.631Z,3310
2016-05-06T10:43:09.914Z,3310
2016-05-06T10:44:09.933Z,3310
2016-05-06T10:45:09.857Z,3295
2016-05-06T10:46:10.078Z,3280
2016-05-06T10:47:10.144Z,3255
2016-05-06T10:48:10.178Z,3245
2016-05-06T10:49:10.102Z,3260
2016-05-06T10:50:10.168Z,3265
2016-05-06T10:51:10.342Z,3260
2016-05-06T10:52:10.469Z,3300
2016-05-06T10:53:10.472Z,3310
2016-05-06T10:54:10.538Z,3350
2016-05-06T10:55:10.603Z,3380
2016-05-06T10:56:10.700Z,3390
2016-05-06T10:57:12.046Z,3405
2016-05-06T10:58:10.736Z,3410
2016-05-06T10:59:10.879Z,3425
2016-05-06T11:00:10.898Z,3455
2016-05-06T11:01:10.962Z,3425
2016-05-06T11:02:11.107Z,3415
2016-05-06T11:03:11.093Z,3345
2016-05-06T11:04:11.143Z,3300
2016-05-06T11:05:11.082Z,3315
2016-05-06T11:06:11.335Z,3595
2016-05-06T11:07:11.338Z,3985
2016-05-06T11:08:11.388Z,4015
2016-05-06T11:09:11.468Z,3975
2016-05-06T11:10:11.378Z,3895
2016-05-06T11:11:11.490Z,3840
2016-05-06T11:12:11.696Z,3710
2016-05-06T11:13:11.698Z,3635
2016-05-06T11:14:11.717Z,3735
2016-05-06T11:15:11.704Z,3840
2016-05-06T11:16:11.565Z,3815
2016-05-06T11:17:11.943Z,3825
2016-05-06T11:18:11.821Z,3865
2016-05-06T11:19:11.761Z,3870
2016-05-06T11:20:11.967Z,4005
2016-05-06T11:21:12.064Z,4035
2016-05-06T11:22:12.301Z,4130
2016-05-06T11:23:12.381Z,4155
2016-05-06T11:24:12.211Z,4160
2016-05-06T11:25:12.340Z,4190
2016-05-06T11:26:12.686Z,4195
2016-05-06T11:27:13.955Z,4060
2016-05-06T11:28:12.645Z,4040
2016-05-06T11:29:12.585Z,3965
2016-05-06T11:30:12.760Z,3935
2016-05-06T11:31:12.669Z,3945
2016-05-06T11:32:12.749Z,3960
2016-05-06T11:33:12.940Z,3915
2016-05-06T11:34:12.849Z,3885
2016-05-06T11:35:12.913Z,3910
2016-05-06T11:36:13.167Z,4035
2016-05-06T11:37:13.091Z,4055
2016-05-06T11:38:13.109Z,4075
2016-05-06T11:39:13.363Z,4035
2016-05-06T11:40:13.224Z,4045
2016-05-06T11:41:13.493Z,3960
2016-05-06T11:42:13.573Z,3915
2016-05-06T11:43:14.763Z,3920
2016-05-06T11:44:13.813Z,3950
2016-05-06T11:45:13.722Z,3950
2016-05-06T11:46:13.615Z,3970
2016-05-06T11:47:13.571Z,3995
2016-05-06T11:48:13.964Z,4005
2016-05-06T11:49:13.983Z,3940
2016-05-06T11:50:13.861Z,3870
2016-05-06T11:51:14.114Z,3865
2016-05-06T11:52:13.866Z,3840
2016-05-06T11:53:14.212Z,3825
2016-05-06T11:54:14.122Z,3795
2016-05-06T11:55:14.249Z,3825
2016-05-06T11:56:14.423Z,3880
2016-05-06T11:57:14.472Z,3920
2016-05-06T11:58:14.601Z,3780
2016-05-06T11:59:18.728Z,3785
2016-05-06T12:00:14.637Z,3795
2016-05-06T12:01:14.734Z,3755
2016-05-06T12:02:14.658Z,3735
2016-05-06T12:03:14.880Z,3750
2016-05-06T12:04:14.913Z,3755
2016-05-06T12:05:15.011Z,3740
2016-05-06T12:06:15.060Z,3740
2016-05-06T12:07:15.093Z,3690
2016-05-06T12:08:15.269Z,3685
2016-05-06T12:09:15.083Z,3645
2016-05-06T12:10:15.149Z,3630
2016-05-06T12:11:16.776Z,3615
2016-05-06T12:12:17.029Z,3635
2016-05-06T12:13:15.485Z,3670
2016-05-06T12:14:15.425Z,3705
2016-05-06T12:15:15.662Z,3660
2016-05-06T12:16:15.695Z,3630
2016-05-06T12:17:15.715Z,3575
2016-05-06T12:18:15.670Z,3570
2016-05-06T12:19:15.876Z,3610
2016-05-06T12:20:15.942Z,3550
2016-05-06T12:21:15.990Z,3525
2016-05-06T12:22:16.087Z,3515
2016-05-06T12:23:15.856Z,3580
2016-05-06T12:24:16.170Z,3640
2016-05-06T12:25:16.283Z,3670
2016-05-06T12:26:18.145Z,3680
2016-05-06T12:27:16.382Z,3675
2016-05-06T12:28:16.478Z,3620
2016-05-06T12:29:16.371Z,3630
2016-05-06T12:30:16.562Z,3510
2016-05-06T12:31:16.627Z,3415
2016-05-06T12:32:16.536Z,3395
2016-05-06T12:33:16.570Z,3485
2016-05-06T12:34:16.682Z,3480
2016-05-06T12:35:16.716Z,3485
2016-05-06T12:36:16.937Z,3495
2016-05-06T12:37:16.831Z,3465
2016-05-06T12:38:17.052Z,3405
2016-05-06T12:39:17.132Z,3280
2016-05-06T12:40:17.574Z,3295
2016-05-06T12:41:17.154Z,3260
2016-05-06T12:42:17.140Z,3180
2016-05-06T12:43:17.113Z,3075
2016-05-06T12:44:17.412Z,3035
2016-05-06T12:45:17.555Z,3075
2016-05-06T12:46:17.557Z,3045
2016-05-06T12:47:17.607Z,3035
2016-05-06T12:48:17.548Z,2880
2016-05-06T12:49:17.645Z,3115
2016-05-06T12:50:17.804Z,3115
2016-05-06T12:51:17.884Z,3115
2016-05-06T12:52:17.981Z,3130
2016-05-06T12:53:18.030Z,3210
2016-05-06T12:54:18.111Z,3260
2016-05-06T12:55:19.817Z,3235
2016-05-06T12:56:17.897Z,3175
2016-05-06T12:57:18.119Z,3275
2016-05-06T12:58:18.356Z,3285
2016-05-06T12:59:18.078Z,3265
2016-05-06T13:00:18.127Z,3210
2016-05-06T13:01:18.364Z,3200
2016-05-06T13:02:18.601Z,3180
2016-05-06T13:03:18.478Z,3145
2016-05-06T13:04:18.685Z,3145
2016-05-06T13:05:18.766Z,3115
2016-05-06T13:06:19.205Z,3045
2016-05-06T13:07:19.896Z,3000
2016-05-06T13:08:20.446Z,2970
2016-05-06T13:09:19.651Z,2955
2016-05-06T13:10:18.919Z,2900
2016-05-06T13:11:20.563Z,2895
2016-05-06T13:12:19.065Z,2885
2016-05-06T13:13:19.255Z,2865
2016-05-06T13:14:19.196Z,2830
2016-05-06T13:15:19.246Z,2805
2016-05-06T13:16:19.451Z,2730
2016-05-06T13:17:19.485Z,2750
2016-05-06T13:18:19.598Z,2710
2016-05-06T13:19:19.335Z,2685
2016-05-06T13:20:19.571Z,2725
2016-05-06T13:21:19.824Z,2800
2016-05-06T13:22:19.859Z,2845
2016-05-06T13:23:19.612Z,2740
2016-05-06T13:24:19.832Z,2700
2016-05-06T13:25:20.084Z,2735
2016-05-06T13:26:20.306Z,2750
2016-05-06T13:27:19.981Z,2725
2016-05-06T13:28:20.062Z,2705
2016-05-06T13:29:20.095Z,2685
2016-05-06T13:30:20.333Z,2660
2016-05-06T13:31:20.398Z,2680
2016-05-06T13:32:20.120Z,2625
2016-05-06T13:33:20.513Z,2530
2016-05-06T13:34:20.578Z,2670
2016-05-06T13:35:20.705Z,2700
2016-05-06T13:36:20.600Z,2705
2016-05-06T13:37:20.757Z,2665
2016-05-06T13:38:20.932Z,2645
2016-05-06T13:39:20.950Z,2630
2016-05-06T13:40:20.953Z,2600
2016-05-06T13:41:21.987Z,2545
2016-05-06T13:42:20.912Z,2530
2016-05-06T13:43:21.133Z,2500
2016-05-06T13:44:21.214Z,2465
2016-05-06T13:45:21.310Z,2475
2016-05-06T13:46:21.344Z,2480
2016-05-06T13:47:21.362Z,2450
2016-05-06T13:48:21.490Z,2445
2016-05-06T13:49:21.556Z,2385
2016-05-06T13:50:21.433Z,2360
2016-05-06T13:51:21.467Z,2310
2016-05-06T13:52:21.720Z,2240
2016-05-06T13:53:21.598Z,2225
2016-05-06T13:54:21.804Z,2205
2016-05-06T13:55:21.728Z,2225
2016-05-06T13:56:23.496Z,2260